createdAt,value
2022-08-30T00:00:15.146Z,100.00
2022-08-30T00:02:43.531Z,100.00
2022-08-30T00:05:12.062Z,100.00
2022-08-30T00:07:39.539Z,100.00
2022-08-30T00:10:07.671Z,100.00
2022-08-30T00:12:35.915Z,100.00
2022-08-30T00:15:07.101Z,100.00
2022-08-30T00:17:36.311Z,100.00
2022-08-30T00:20:07.568Z,100.00
2022-08-30T00:22:35.289Z,100.00
2022-08-30T00:25:02.773Z,100.00
2022-08-30T00:27:31.180Z,100.00
2022-08-30T00:29:59.026Z,100.00
2022-08-30T00:32:27.142Z,100.00
2022-08-30T00:34:55.728Z,100.00
2022-08-30T00:37:23.363Z,100.00
2022-08-30T00:39:51.382Z,100.00
2022-08-30T00:42:21.133Z,100.00
2022-08-30T00:44:49.016Z,100.00
2022-08-30T00:47:17.599Z,100.00
2022-08-30T00:49:48.765Z,100.00
2022-08-30T00:52:18.688Z,100.00
2022-08-30T00:54:48.858Z,100.00
2022-08-30T00:57:16.756Z,100.00
2022-08-30T00:59:47.862Z,100.00
2022-08-30T01:02:15.752Z,100.00
2022-08-30T01:04:45.126Z,100.00
2022-08-30T01:07:12.775Z,100.00
2022-08-30T01:09:40.241Z,100.00
2022-08-30T01:12:09.110Z,100.00
2022-08-30T01:14:37.222Z,100.00
2022-08-30T01:17:07.162Z,100.00
2022-08-30T01:19:44.978Z,100.00
2022-08-30T01:22:37.965Z,100.00
2022-08-30T01:25:08.308Z,100.00
2022-08-30T01:27:40.306Z,100.00
2022-08-30T01:30:09.169Z,100.00
2022-08-30T01:32:43.753Z,100.00
2022-08-30T01:35:14.772Z,100.00
2022-08-30T01:37:44.766Z,100.00
2022-08-30T01:40:15.111Z,100.00
2022-08-30T01:42:43.455Z,100.00
2022-08-30T01:45:11.786Z,100.00
2022-08-30T01:47:40.431Z,100.00
2022-08-30T01:50:09.482Z,100.00
2022-08-30T01:52:37.050Z,100.00
2022-08-30T01:55:05.274Z,100.00
2022-08-30T01:57:32.854Z,100.00
2022-08-30T02:00:00.351Z,100.00
2022-08-30T02:02:30.362Z,100.00
2022-08-30T02:04:58.526Z,100.00
2022-08-30T02:07:27.114Z,100.00
2022-08-30T02:09:55.069Z,100.00
2022-08-30T02:12:22.533Z,100.00
2022-08-30T02:14:50.172Z,100.00
2022-08-30T02:17:19.391Z,100.00
2022-08-30T02:19:46.950Z,100.00
2022-08-30T02:22:14.605Z,100.00
2022-08-30T02:24:42.106Z,100.00
2022-08-30T02:27:09.675Z,100.00
2022-08-30T02:29:37.194Z,100.00
2022-08-30T02:32:05.888Z,100.00
2022-08-30T02:34:33.529Z,100.00
2022-08-30T02:37:01.165Z,100.00
2022-08-30T02:39:28.675Z,100.00
2022-08-30T02:41:56.238Z,100.00
2022-08-30T02:44:23.766Z,100.00
2022-08-30T02:46:51.317Z,100.00
2022-08-30T02:49:34.449Z,100.00
2022-08-30T02:52:04.930Z,100.00
2022-08-30T02:54:33.482Z,100.00
2022-08-30T02:57:04.802Z,100.00
2022-08-30T02:59:33.353Z,100.00
2022-08-30T03:02:01.108Z,100.00
2022-08-30T03:04:28.595Z,100.00
2022-08-30T03:06:56.176Z,100.00
2022-08-30T03:09:23.696Z,100.00
2022-08-30T03:11:51.219Z,100.00
2022-08-30T03:14:18.681Z,100.00
2022-08-30T03:16:46.463Z,100.00
2022-08-30T03:19:14.014Z,100.00
2022-08-30T03:21:41.565Z,100.00
2022-08-30T03:24:09.175Z,100.00
2022-08-30T03:26:36.819Z,100.00
2022-08-30T03:29:04.498Z,100.00
2022-08-30T03:31:32.226Z,100.00
2022-08-30T03:34:10.783Z,100.00
2022-08-30T03:36:39.386Z,100.00
2022-08-30T03:39:09.338Z,100.00
2022-08-30T03:41:41.465Z,100.00
2022-08-30T03:44:08.934Z,100.00
2022-08-30T03:46:37.675Z,100.00
2022-08-30T03:49:06.426Z,100.00
2022-08-30T03:51:34.367Z,100.00
2022-08-30T03:54:02.832Z,100.00
2022-08-30T03:56:30.444Z,100.00
2022-08-30T03:58:57.985Z,100.00
2022-08-30T04:01:25.536Z,100.00
2022-08-30T04:03:53.054Z,100.00
2022-08-30T04:06:20.656Z,100.00
2022-08-30T04:08:48.158Z,100.00
2022-08-30T04:11:16.441Z,100.00
2022-08-30T04:13:44.691Z,100.00
2022-08-30T04:16:12.532Z,100.00
2022-08-30T04:18:40.050Z,100.00
2022-08-30T04:21:10.348Z,100.00
2022-08-30T04:23:41.145Z,100.00
2022-08-30T04:26:08.862Z,100.00
2022-08-30T04:28:36.778Z,100.00
2022-08-30T04:31:13.278Z,100.00
2022-08-30T04:33:43.156Z,100.00
2022-08-30T04:36:13.921Z,100.00
2022-08-30T04:38:43.320Z,100.00
2022-08-30T04:41:18.444Z,100.00
2022-08-30T04:43:48.358Z,100.00
2022-08-30T04:46:16.169Z,100.00
2022-08-30T04:48:43.924Z,100.00
2022-08-30T04:51:14.096Z,100.00
2022-08-30T04:53:42.959Z,100.00
2022-08-30T04:56:18.749Z,100.00
2022-08-30T04:58:48.449Z,100.00
2022-08-30T05:01:27.811Z,100.00
2022-08-30T05:03:57.155Z,100.00
2022-08-30T05:06:27.422Z,100.00
2022-08-30T05:08:55.939Z,100.00
2022-08-30T05:11:24.131Z,100.00
2022-08-30T05:13:51.802Z,100.00
2022-08-30T05:16:19.814Z,100.00
2022-08-30T05:18:49.380Z,100.00
2022-08-30T05:21:20.621Z,100.00
2022-08-30T05:23:48.756Z,100.00
2022-08-30T05:26:25.908Z,100.00
2022-08-30T05:28:53.927Z,100.00
2022-08-30T05:31:28.743Z,100.00
2022-08-30T05:33:56.797Z,100.00
2022-08-30T05:36:27.373Z,100.00
2022-08-30T05:38:55.676Z,100.00
2022-08-30T05:41:26.503Z,100.00
2022-08-30T05:43:56.812Z,100.00
2022-08-30T05:46:24.967Z,100.00
2022-08-30T05:48:52.891Z,100.00
2022-08-30T05:51:23.398Z,100.00
2022-08-30T05:53:53.641Z,100.00
2022-08-30T05:56:25.237Z,100.00
2022-08-30T05:58:53.448Z,100.00
2022-08-30T06:01:20.929Z,100.00
2022-08-30T06:03:48.639Z,100.00
2022-08-30T06:06:16.822Z,100.00
2022-08-30T06:08:45.664Z,100.00
2022-08-30T06:11:14.710Z,100.00
2022-08-30T06:13:42.621Z,100.00
2022-08-30T06:16:13.694Z,100.00
2022-08-30T06:18:41.428Z,100.00
2022-08-30T06:21:13.315Z,100.00
2022-08-30T06:23:42.568Z,100.00
2022-08-30T06:26:10.360Z,100.00
2022-08-30T06:28:37.907Z,100.00
2022-08-30T06:31:10.848Z,100.00
2022-08-30T06:33:39.043Z,100.00
2022-08-30T06:36:08.884Z,100.00
2022-08-30T06:38:37.284Z,100.00
2022-08-30T06:41:10.408Z,100.00
2022-08-30T06:43:38.516Z,100.00
2022-08-30T06:46:11.891Z,100.00
2022-08-30T06:48:39.779Z,100.00
2022-08-30T06:51:08.295Z,100.00
2022-08-30T06:53:36.581Z,100.00
2022-08-30T06:56:08.036Z,99.82
2022-08-30T06:58:37.464Z,98.69
2022-08-30T07:01:07.251Z,98.58
2022-08-30T07:03:37.999Z,96.96
2022-08-30T07:06:05.755Z,96.50
2022-08-30T07:08:33.284Z,96.70
2022-08-30T07:11:00.925Z,95.32
2022-08-30T07:13:28.783Z,93.66
2022-08-30T07:15:56.340Z,91.64
2022-08-30T07:18:41.519Z,90.65
2022-08-30T07:21:16.877Z,88.65
2022-08-30T07:23:46.908Z,86.06
2022-08-30T07:26:20.057Z,84.21
2022-08-30T07:28:48.014Z,82.67
2022-08-30T07:31:20.899Z,79.87
2022-08-30T07:33:48.929Z,79.61
2022-08-30T07:36:18.359Z,79.27
2022-08-30T07:38:47.555Z,78.16
2022-08-30T07:41:35.759Z,74.95
2022-08-30T07:44:04.076Z,75.01
2022-08-30T07:46:31.666Z,72.65
2022-08-30T07:49:01.808Z,71.94
2022-08-30T07:51:32.875Z,71.64
2022-08-30T07:54:00.666Z,70.27
2022-08-30T07:56:28.690Z,69.54
2022-08-30T07:58:56.292Z,68.60
2022-08-30T08:01:24.522Z,68.78
2022-08-30T08:03:52.613Z,67.95
2022-08-30T08:06:23.120Z,64.72
2022-08-30T08:08:51.514Z,64.93
2022-08-30T08:11:31.665Z,63.64
2022-08-30T08:14:02.146Z,64.64
2022-08-30T08:16:32.865Z,61.33
2022-08-30T08:19:00.611Z,60.59
2022-08-30T08:21:28.371Z,59.47
2022-08-30T08:23:56.453Z,58.53
2022-08-30T08:26:24.177Z,58.07
2022-08-30T08:28:51.955Z,56.69
2022-08-30T08:31:23.629Z,55.55
2022-08-30T08:33:58.690Z,54.54
2022-08-30T08:36:26.215Z,53.61
2022-08-30T08:38:54.483Z,52.99
2022-08-30T08:41:43.667Z,52.62
2022-08-30T08:44:53.461Z,52.16
2022-08-30T08:47:40.576Z,52.64
2022-08-30T08:50:18.558Z,52.75
2022-08-30T08:53:46.765Z,51.40
2022-08-30T08:56:17.678Z,49.17
2022-08-30T08:58:54.787Z,48.18
2022-08-30T09:01:27.591Z,47.96
2022-08-30T09:03:57.620Z,47.93
2022-08-30T09:06:49.738Z,47.43
2022-08-30T09:09:22.139Z,46.14
2022-08-30T09:11:49.896Z,45.96
2022-08-30T09:14:22.732Z,46.38
2022-08-30T09:17:03.310Z,45.60
2022-08-30T09:19:38.107Z,45.82
2022-08-30T09:22:18.601Z,44.94
2022-08-30T09:24:49.952Z,44.69
2022-08-30T09:27:36.862Z,45.02
2022-08-30T09:33:05.690Z,44.41
2022-08-30T09:35:46.057Z,43.80
2022-08-30T09:38:21.786Z,43.52
2022-08-30T09:40:58.705Z,42.87
2022-08-30T09:43:35.510Z,43.10
2022-08-30T09:46:03.357Z,43.64
2022-08-30T09:48:44.232Z,42.26
2022-08-30T09:51:12.555Z,42.55
2022-08-30T09:53:42.486Z,41.87
2022-08-30T09:56:21.086Z,42.82
2022-08-30T09:59:13.450Z,41.81
2022-08-30T10:01:47.559Z,40.83
2022-08-30T10:04:25.552Z,40.71
2022-08-30T10:07:03.815Z,39.06
2022-08-30T10:09:34.298Z,40.35
2022-08-30T10:12:42.281Z,40.21
2022-08-30T10:15:26.959Z,40.50
2022-08-30T10:18:00.449Z,39.73
2022-08-30T10:20:33.643Z,39.08
2022-08-30T10:23:10.837Z,39.10
2022-08-30T10:25:48.727Z,37.97
2022-08-30T10:28:43.570Z,37.17
2022-08-30T10:31:39.347Z,38.18
2022-08-30T10:34:21.169Z,37.42
2022-08-30T10:37:04.675Z,38.03
2022-08-30T10:39:42.020Z,38.70
2022-08-30T10:42:26.857Z,38.56
2022-08-30T10:45:02.509Z,38.62
2022-08-30T10:47:36.746Z,37.05
2022-08-30T10:50:25.426Z,37.83
2022-08-30T10:53:01.368Z,37.76
2022-08-30T10:55:49.844Z,39.21
2022-08-30T10:58:19.192Z,38.06
2022-08-30T11:01:04.156Z,38.13
2022-08-30T11:04:16.442Z,39.16
2022-08-30T11:07:05.914Z,38.80
2022-08-30T11:10:04.764Z,39.40
2022-08-30T11:12:35.449Z,39.10
2022-08-30T11:15:25.816Z,39.38
2022-08-30T11:18:03.979Z,37.79
2022-08-30T11:20:54.224Z,37.72
2022-08-30T11:23:21.669Z,37.60
2022-08-30T11:25:58.118Z,37.81
2022-08-30T11:28:37.743Z,37.09
2022-08-30T11:31:15.894Z,38.19
2022-08-30T11:33:47.547Z,37.56
2022-08-30T11:36:37.350Z,38.00
2022-08-30T11:39:43.779Z,38.78
2022-08-30T11:42:42.561Z,38.32
2022-08-30T11:45:28.200Z,37.59
2022-08-30T11:47:59.594Z,37.29
2022-08-30T11:50:48.801Z,36.78
2022-08-30T11:54:00.728Z,36.29
2022-08-30T11:56:46.627Z,37.77
2022-08-30T11:59:45.051Z,37.26
2022-08-30T12:02:52.548Z,37.37
2022-08-30T12:05:39.764Z,36.82
2022-08-30T12:08:33.431Z,36.06
2022-08-30T12:11:13.131Z,37.28
2022-08-30T12:13:43.788Z,37.20
2022-08-30T12:16:24.994Z,37.76
2022-08-30T12:18:57.173Z,37.19
2022-08-30T12:21:28.171Z,37.26
2022-08-30T12:24:19.675Z,36.40
2022-08-30T12:26:51.315Z,35.86
2022-08-30T12:29:21.798Z,36.11
2022-08-30T12:31:55.681Z,34.96
2022-08-30T12:34:45.902Z,36.89
2022-08-30T12:37:29.734Z,36.03
2022-08-30T12:40:18.918Z,36.60
2022-08-30T12:42:54.894Z,35.42
2022-08-30T12:45:31.350Z,35.45
2022-08-30T12:48:08.734Z,37.02
2022-08-30T12:50:52.213Z,34.89
2022-08-30T12:53:31.500Z,36.60
2022-08-30T12:56:05.444Z,36.38
2022-08-30T12:58:49.689Z,35.64
2022-08-30T13:01:27.373Z,36.93
2022-08-30T13:04:06.224Z,35.92
2022-08-30T13:06:43.792Z,34.89
2022-08-30T13:09:24.917Z,35.41
2022-08-30T13:11:52.802Z,35.08
2022-08-30T13:14:33.980Z,35.69
2022-08-30T13:17:13.764Z,35.61
2022-08-30T13:19:43.800Z,36.21
2022-08-30T13:22:32.387Z,35.61
2022-08-30T13:25:01.410Z,35.64
2022-08-30T13:27:30.368Z,34.45
2022-08-30T13:29:59.320Z,35.73
2022-08-30T13:32:27.805Z,34.81
2022-08-30T13:34:55.309Z,34.12
2022-08-30T13:40:15.395Z,34.47
2022-08-30T13:42:43.074Z,35.23
2022-08-30T13:48:01.355Z,34.98
2022-08-30T13:50:28.887Z,35.99
2022-08-30T13:52:58.285Z,36.03
2022-08-30T13:55:25.805Z,36.59
2022-08-30T13:57:54.182Z,35.97
2022-08-30T14:00:23.590Z,36.65
2022-08-30T14:02:57.165Z,36.94
2022-08-30T14:11:07.242Z,37.42
2022-08-30T14:13:34.887Z,36.92
2022-08-30T14:19:04.408Z,37.68
2022-08-30T14:21:34.020Z,37.82
2022-08-30T14:24:01.653Z,37.98
2022-08-30T14:26:35.367Z,38.43
2022-08-30T14:29:08.974Z,38.14
2022-08-30T14:31:37.915Z,38.37
2022-08-30T14:34:06.505Z,37.71
2022-08-30T14:36:36.171Z,37.73
2022-08-30T14:39:08.212Z,38.34
2022-08-30T14:41:40.136Z,38.70
2022-08-30T14:44:11.185Z,38.34
2022-08-30T14:46:38.802Z,38.37
2022-08-30T14:49:10.315Z,38.25
2022-08-30T14:51:39.382Z,38.51
2022-08-30T14:54:08.108Z,38.79
2022-08-30T14:56:38.480Z,38.33
2022-08-30T14:59:06.713Z,38.37
2022-08-30T15:01:37.330Z,38.52
2022-08-30T15:04:07.191Z,38.86
2022-08-30T15:06:36.899Z,38.92
2022-08-30T15:09:06.561Z,39.32
2022-08-30T15:11:34.897Z,38.84
2022-08-30T15:14:02.735Z,38.88
2022-08-30T15:16:36.625Z,39.36
2022-08-30T15:19:07.220Z,38.49
2022-08-30T15:21:42.608Z,38.76
2022-08-30T15:24:13.945Z,39.08
2022-08-30T15:26:44.211Z,38.75
2022-08-30T15:29:14.118Z,39.08
2022-08-30T15:31:42.893Z,39.10
2022-08-30T15:34:14.361Z,39.09
2022-08-30T15:36:43.317Z,39.55
2022-08-30T15:39:11.792Z,38.71
2022-08-30T15:41:39.926Z,39.69
2022-08-30T15:44:11.784Z,39.33
2022-08-30T15:46:42.317Z,39.49
2022-08-30T15:49:19.435Z,39.39
2022-08-30T15:51:48.992Z,39.49
2022-08-30T15:54:21.958Z,39.12
2022-08-30T15:56:49.487Z,39.66
2022-08-30T15:59:17.585Z,40.52
2022-08-30T16:01:47.501Z,40.15
2022-08-30T16:04:17.122Z,40.32
2022-08-30T16:06:46.926Z,40.28
2022-08-30T16:09:14.859Z,40.04
2022-08-30T16:11:43.183Z,40.08
2022-08-30T16:14:11.534Z,40.33
2022-08-30T16:16:41.005Z,40.20
2022-08-30T16:19:09.283Z,40.46
2022-08-30T16:21:37.713Z,40.57
2022-08-30T16:24:07.783Z,40.54
2022-08-30T16:26:38.963Z,40.16
2022-08-30T16:29:08.837Z,39.88
2022-08-30T16:31:37.493Z,40.22
2022-08-30T16:34:06.220Z,40.18
2022-08-30T16:36:35.885Z,40.08
2022-08-30T16:39:08.358Z,40.37
2022-08-30T16:41:37.511Z,40.33
2022-08-30T16:44:06.982Z,40.24
2022-08-30T16:46:37.035Z,40.60
2022-08-30T16:49:05.677Z,41.05
2022-08-30T16:51:36.809Z,40.52
2022-08-30T16:54:07.821Z,40.63
2022-08-30T16:56:36.610Z,40.72
2022-08-30T16:59:10.976Z,41.14
2022-08-30T17:01:42.152Z,40.90
2022-08-30T17:04:10.995Z,40.86
2022-08-30T17:06:41.120Z,41.29
2022-08-30T17:09:09.748Z,41.46
2022-08-30T17:11:40.316Z,41.63
2022-08-30T17:14:08.700Z,41.49
2022-08-30T17:16:38.325Z,41.40
2022-08-30T17:19:07.390Z,41.66
2022-08-30T17:21:35.509Z,41.72
2022-08-30T17:24:03.583Z,42.06
2022-08-30T17:26:32.904Z,41.98
2022-08-30T17:29:00.682Z,41.76
2022-08-30T17:31:30.647Z,42.14
2022-08-30T17:34:03.330Z,42.58
2022-08-30T17:36:36.474Z,42.52
2022-08-30T17:39:10.982Z,42.18
2022-08-30T17:41:39.590Z,42.13
2022-08-30T17:44:10.978Z,42.14
2022-08-30T17:46:39.125Z,42.25
2022-08-30T17:49:10.408Z,41.96
2022-08-30T17:51:40.793Z,43.03
2022-08-30T17:54:09.587Z,42.55
2022-08-30T17:56:37.109Z,42.73
2022-08-30T17:59:07.952Z,42.98
2022-08-30T18:01:37.396Z,42.79
2022-08-30T18:04:06.273Z,43.11
2022-08-30T18:06:34.979Z,43.41
2022-08-30T18:09:04.705Z,43.42
2022-08-30T18:11:36.547Z,43.32
2022-08-30T18:14:06.140Z,43.56
2022-08-30T18:16:35.671Z,43.76
2022-08-30T18:19:09.735Z,44.10
2022-08-30T18:21:38.729Z,43.84
2022-08-30T18:24:06.767Z,44.56
2022-08-30T18:26:36.742Z,44.37
2022-08-30T18:29:10.585Z,45.30
2022-08-30T18:31:38.290Z,45.12
2022-08-30T18:34:07.036Z,45.79
2022-08-30T18:36:39.901Z,45.44
2022-08-30T18:39:07.671Z,46.79
2022-08-30T18:41:39.158Z,46.40
2022-08-30T18:44:26.784Z,47.39
2022-08-30T18:46:57.090Z,49.01
2022-08-30T18:49:26.146Z,50.83
2022-08-30T18:51:54.474Z,52.86
2022-08-30T18:54:22.101Z,55.10
2022-08-30T18:56:50.687Z,56.59
2022-08-30T18:59:19.611Z,58.15
2022-08-30T19:01:48.827Z,59.64
2022-08-30T19:04:29.777Z,61.27
2022-08-30T19:07:03.999Z,62.93
2022-08-30T19:09:31.520Z,63.37
2022-08-30T19:11:59.022Z,64.19
2022-08-30T19:14:28.156Z,65.46
2022-08-30T19:16:56.367Z,66.23
2022-08-30T19:19:24.447Z,67.35
2022-08-30T19:21:52.702Z,68.05
2022-08-30T19:24:21.448Z,68.84
2022-08-30T19:26:49.142Z,69.45
2022-08-30T19:29:16.941Z,70.17
2022-08-30T19:31:44.757Z,70.67
2022-08-30T19:34:13.708Z,71.44
2022-08-30T19:36:41.316Z,71.85
2022-08-30T19:39:09.921Z,72.50
2022-08-30T19:41:38.509Z,73.24
2022-08-30T19:44:07.015Z,74.04
2022-08-30T19:46:35.131Z,74.46
2022-08-30T19:49:04.254Z,75.21
2022-08-30T19:51:31.897Z,76.20
2022-08-30T19:54:01.134Z,76.45
2022-08-30T19:56:28.859Z,76.88
2022-08-30T19:58:56.397Z,76.86
2022-08-30T20:04:12.710Z,77.04
2022-08-30T20:06:41.900Z,76.91
2022-08-30T20:09:10.756Z,76.80
2022-08-30T20:11:38.909Z,76.63
2022-08-30T20:14:07.419Z,76.48
2022-08-30T20:16:37.699Z,76.53
2022-08-30T20:19:07.711Z,76.58
2022-08-30T20:21:35.723Z,76.45
2022-08-30T20:24:04.092Z,76.76
2022-08-30T20:26:34.132Z,77.20
2022-08-30T20:29:03.347Z,77.21
2022-08-30T20:31:31.158Z,77.53
2022-08-30T20:33:58.896Z,77.73
2022-08-30T20:36:26.484Z,78.23
2022-08-30T20:38:54.515Z,78.09
2022-08-30T20:41:22.386Z,78.61
2022-08-30T20:43:50.461Z,78.64
2022-08-30T20:46:20.097Z,79.35
2022-08-30T20:48:48.277Z,79.85
2022-08-30T20:51:19.150Z,80.18
2022-08-30T20:53:47.382Z,80.89
2022-08-30T20:56:21.606Z,81.06
2022-08-30T20:58:50.833Z,82.08
2022-08-30T21:01:18.464Z,82.39
2022-08-30T21:03:47.605Z,82.85
2022-08-30T21:06:16.513Z,83.17
2022-08-30T21:08:44.472Z,83.94
2022-08-30T21:11:12.271Z,84.11
2022-08-30T21:13:40.061Z,84.72
2022-08-30T21:16:08.414Z,85.39
2022-08-30T21:18:39.861Z,85.93
2022-08-30T21:21:15.282Z,86.22
2022-08-30T21:23:43.611Z,86.31
2022-08-30T21:26:11.896Z,86.21
2022-08-30T21:28:40.166Z,86.84
2022-08-30T21:31:07.793Z,87.18
2022-08-30T21:33:35.842Z,86.98
2022-08-30T21:36:20.914Z,86.67
2022-08-30T21:38:48.606Z,86.44
2022-08-30T21:41:16.478Z,86.30
2022-08-30T21:43:44.127Z,86.06
2022-08-30T21:46:12.073Z,85.96
2022-08-30T21:48:39.720Z,85.57
2022-08-30T21:51:12.210Z,85.57
2022-08-30T21:53:39.871Z,85.00
2022-08-30T21:56:09.649Z,84.95
2022-08-30T21:58:41.255Z,84.97
2022-08-30T22:01:19.814Z,84.52
2022-08-30T22:03:47.688Z,84.33
2022-08-30T22:06:15.843Z,84.06
2022-08-30T22:08:45.370Z,83.87
2022-08-30T22:11:16.077Z,83.97
2022-08-30T22:13:46.937Z,83.73
2022-08-30T22:16:16.866Z,83.65
2022-08-30T22:18:45.045Z,83.46
2022-08-30T22:21:15.742Z,83.71
2022-08-30T22:23:43.643Z,83.29
2022-08-30T22:26:14.235Z,83.04
2022-08-30T22:28:41.816Z,82.89
2022-08-30T22:31:11.317Z,82.68
2022-08-30T22:33:39.400Z,82.52
2022-08-30T22:36:19.466Z,82.10
2022-08-30T22:38:46.983Z,81.85
2022-08-30T22:41:18.041Z,81.75
2022-08-30T22:43:45.964Z,81.84
2022-08-30T22:46:13.761Z,81.63
2022-08-30T22:51:19.252Z,81.99
2022-08-30T22:53:46.877Z,81.85
2022-08-30T22:56:20.957Z,81.83
2022-08-30T22:58:49.679Z,81.52
2022-08-30T23:01:31.155Z,81.78
2022-08-30T23:04:01.002Z,81.66
2022-08-30T23:06:28.840Z,82.18
2022-08-30T23:08:57.254Z,82.03
2022-08-30T23:11:24.933Z,82.09
2022-08-30T23:13:52.739Z,82.15
2022-08-30T23:16:21.789Z,82.11
2022-08-30T23:18:49.617Z,81.85
2022-08-30T23:21:25.966Z,81.83
2022-08-30T23:24:12.414Z,81.93
2022-08-30T23:26:58.202Z,81.90
2022-08-30T23:29:43.993Z,82.12
2022-08-30T23:32:29.279Z,82.29
2022-08-30T23:35:14.498Z,82.43
2022-08-30T23:37:59.423Z,82.67
2022-08-30T23:40:44.835Z,82.45
2022-08-30T23:43:30.012Z,82.91
2022-08-30T23:46:18.807Z,82.84
2022-08-30T23:49:04.559Z,82.67
2022-08-30T23:51:49.368Z,82.29
2022-08-30T23:54:34.122Z,81.95
2022-08-30T23:57:19.082Z,81.55
